createdAt,value
2022-12-22T00:00:56.092Z,81.35
2022-12-22T00:02:19.222Z,82.54
2022-12-22T00:03:39.527Z,83.66
2022-12-22T00:05:03.411Z,84.98
2022-12-22T00:06:28.451Z,85.47
2022-12-22T00:07:48.325Z,86.48
2022-12-22T00:09:08.122Z,88.22
2022-12-22T00:10:28.647Z,88.58
2022-12-22T00:11:49.056Z,88.26
2022-12-22T00:13:08.974Z,89.17
2022-12-22T00:14:30.465Z,89.63
2022-12-22T00:15:53.796Z,90.48
2022-12-22T00:17:15.663Z,90.44
2022-12-22T00:18:35.857Z,91.48
2022-12-22T00:19:55.786Z,92.23
2022-12-22T00:21:15.791Z,92.14
2022-12-22T00:22:41.036Z,91.95
2022-12-22T00:24:01.383Z,91.79
2022-12-22T00:25:21.755Z,91.02
2022-12-22T00:26:42.759Z,89.92
2022-12-22T00:28:03.147Z,88.74
2022-12-22T00:29:23.428Z,87.46
2022-12-22T00:30:43.729Z,86.94
2022-12-22T00:32:04.932Z,86.02
2022-12-22T00:33:25.464Z,85.54
2022-12-22T00:34:46.744Z,83.63
2022-12-22T00:36:07.128Z,82.40
2022-12-22T00:37:33.597Z,81.30
2022-12-22T00:38:54.017Z,80.39
2022-12-22T00:40:13.897Z,80.56
2022-12-22T00:41:33.872Z,80.80
2022-12-22T00:42:54.489Z,80.96
2022-12-22T00:44:14.537Z,82.57
2022-12-22T00:45:34.451Z,85.00
2022-12-22T00:46:58.413Z,83.89
2022-12-22T00:48:19.361Z,82.91
2022-12-22T00:49:42.908Z,81.84
2022-12-22T00:51:03.156Z,81.50
2022-12-22T00:52:23.510Z,81.73
2022-12-22T00:53:43.966Z,82.69
2022-12-22T00:55:04.068Z,84.07
2022-12-22T00:56:25.450Z,85.05
2022-12-22T00:57:46.353Z,85.27
2022-12-22T00:59:08.038Z,84.76
2022-12-22T01:00:34.675Z,84.96
2022-12-22T01:01:55.103Z,84.80
2022-12-22T01:03:15.400Z,85.38
2022-12-22T01:04:35.554Z,84.91
2022-12-22T01:05:55.999Z,86.33
2022-12-22T01:07:16.643Z,86.11
2022-12-22T01:08:37.188Z,87.01
2022-12-22T01:09:57.557Z,86.91
2022-12-22T01:11:17.824Z,86.73
2022-12-22T01:12:42.639Z,86.30
2022-12-22T01:14:03.060Z,86.54
2022-12-22T01:15:30.118Z,87.08
2022-12-22T01:16:50.360Z,87.22
2022-12-22T01:18:10.291Z,87.47
2022-12-22T01:19:30.313Z,87.12
2022-12-22T01:20:53.361Z,86.61
2022-12-22T01:22:14.640Z,86.31
2022-12-22T01:23:34.968Z,85.31
2022-12-22T01:24:54.668Z,85.22
2022-12-22T01:26:14.488Z,84.95
2022-12-22T01:27:35.520Z,84.90
2022-12-22T01:28:55.697Z,84.26
2022-12-22T01:30:15.716Z,84.09
2022-12-22T01:31:51.382Z,84.34
2022-12-22T01:33:11.280Z,84.66
2022-12-22T01:34:31.021Z,84.03
2022-12-22T01:35:53.391Z,84.55
2022-12-22T01:37:13.322Z,84.02
2022-12-22T01:38:33.848Z,83.43
2022-12-22T01:39:53.785Z,83.83
2022-12-22T01:41:16.914Z,83.05
2022-12-22T01:42:37.338Z,81.93
2022-12-22T01:43:57.815Z,82.52
2022-12-22T01:45:32.381Z,82.34
2022-12-22T01:47:01.511Z,81.70
2022-12-22T01:48:21.552Z,81.02
2022-12-22T01:49:49.050Z,80.84
2022-12-22T01:51:08.913Z,80.50
2022-12-22T01:52:32.251Z,80.52
2022-12-22T01:53:53.432Z,80.63
2022-12-22T01:55:16.576Z,80.38
2022-12-22T01:56:36.679Z,80.46
2022-12-22T01:57:56.766Z,80.87
2022-12-22T01:59:19.772Z,81.87
2022-12-22T02:00:40.267Z,81.63
2022-12-22T02:02:01.732Z,81.25
2022-12-22T02:03:22.128Z,80.79
2022-12-22T02:04:46.354Z,80.26
2022-12-22T02:06:33.271Z,80.24
2022-12-22T02:08:06.493Z,79.78
2022-12-22T02:09:41.528Z,79.31
2022-12-22T02:11:17.495Z,78.92
2022-12-22T02:12:42.956Z,78.74
2022-12-22T02:14:08.865Z,78.23
2022-12-22T02:15:44.336Z,77.86
2022-12-22T02:17:30.761Z,77.78
2022-12-22T02:19:14.043Z,77.56
2022-12-22T02:20:47.160Z,76.47
2022-12-22T02:22:22.969Z,76.87
2022-12-22T02:23:54.058Z,76.66
2022-12-22T02:25:25.058Z,76.69
2022-12-22T02:26:47.234Z,76.58
2022-12-22T02:28:10.563Z,76.62
2022-12-22T02:29:33.652Z,76.48
2022-12-22T02:30:55.111Z,75.92
2022-12-22T02:32:16.181Z,75.24
2022-12-22T02:33:38.544Z,75.30
2022-12-22T02:34:58.437Z,74.92
2022-12-22T02:36:31.842Z,74.65
2022-12-22T02:37:54.754Z,74.79
2022-12-22T02:39:21.003Z,74.56
2022-12-22T02:41:06.133Z,74.58
2022-12-22T02:42:35.029Z,74.16
2022-12-22T02:44:12.225Z,74.32
2022-12-22T02:45:32.347Z,73.96
2022-12-22T02:46:57.808Z,73.47
2022-12-22T02:48:27.091Z,74.09
2022-12-22T02:49:57.854Z,74.94
2022-12-22T02:51:24.745Z,77.03
2022-12-22T02:52:52.776Z,77.98
2022-12-22T02:54:13.996Z,77.56
2022-12-22T02:55:35.655Z,78.07
2022-12-22T02:56:56.924Z,79.69
2022-12-22T02:58:20.183Z,80.02
2022-12-22T02:59:39.954Z,80.66
2022-12-22T03:00:59.750Z,80.76
2022-12-22T03:02:19.932Z,80.62
2022-12-22T03:03:40.444Z,80.98
2022-12-22T03:05:00.467Z,81.38
2022-12-22T03:06:20.275Z,82.10
2022-12-22T03:07:40.160Z,81.30
2022-12-22T03:09:00.229Z,81.26
2022-12-22T03:10:20.090Z,81.08
2022-12-22T03:11:39.910Z,80.77
2022-12-22T03:13:00.240Z,80.98
2022-12-22T03:14:20.168Z,80.34
2022-12-22T03:15:40.184Z,81.07
2022-12-22T03:17:00.176Z,81.58
2022-12-22T03:18:25.342Z,81.60
2022-12-22T03:19:45.260Z,81.70
2022-12-22T03:21:05.659Z,81.40
2022-12-22T03:22:25.884Z,81.65
2022-12-22T03:23:45.648Z,81.49
2022-12-22T03:25:06.048Z,82.79
2022-12-22T03:26:07.600Z,83.42
2022-12-22T03:27:09.192Z,83.31
2022-12-22T03:28:11.485Z,82.72
2022-12-22T03:29:13.023Z,81.94
2022-12-22T03:30:14.722Z,81.22
2022-12-22T03:31:16.470Z,80.95
2022-12-22T03:32:18.069Z,81.21
2022-12-22T03:33:19.632Z,81.48
2022-12-22T03:34:21.212Z,81.19
2022-12-22T03:35:22.798Z,81.28
2022-12-22T03:36:24.430Z,80.87
2022-12-22T03:37:25.953Z,80.12
2022-12-22T03:38:28.197Z,79.09
2022-12-22T03:39:29.714Z,79.17
2022-12-22T03:40:32.343Z,78.31
2022-12-22T03:41:52.409Z,77.50
2022-12-22T03:43:12.521Z,77.53
2022-12-22T03:44:32.726Z,76.94
2022-12-22T03:45:53.124Z,76.83
2022-12-22T03:46:54.831Z,76.33
2022-12-22T03:47:56.413Z,76.23
2022-12-22T03:49:11.074Z,75.44
2022-12-22T03:50:12.771Z,75.92
2022-12-22T03:51:14.315Z,75.25
2022-12-22T03:52:15.896Z,75.08
2022-12-22T03:53:17.659Z,74.70
2022-12-22T03:54:22.200Z,74.84
2022-12-22T03:55:23.773Z,75.08
2022-12-22T03:56:25.438Z,75.19
2022-12-22T03:57:26.967Z,74.12
2022-12-22T03:58:29.113Z,74.31
2022-12-22T03:59:30.619Z,74.21
2022-12-22T04:00:32.241Z,74.46
2022-12-22T04:01:38.362Z,74.29
2022-12-22T04:02:40.125Z,73.79
2022-12-22T04:03:41.738Z,73.80
2022-12-22T04:04:43.264Z,73.55
2022-12-22T04:05:45.745Z,72.99
2022-12-22T04:06:47.797Z,73.39
2022-12-22T04:07:49.324Z,72.87
2022-12-22T04:08:51.244Z,72.63
2022-12-22T04:10:11.340Z,72.42
2022-12-22T04:11:33.400Z,72.23
2022-12-22T04:12:53.485Z,71.94
2022-12-22T04:13:54.985Z,71.91
2022-12-22T04:14:56.538Z,72.03
2022-12-22T04:15:58.076Z,72.11
2022-12-22T04:16:59.703Z,72.68
2022-12-22T04:18:01.312Z,73.71
2022-12-22T04:19:03.088Z,74.84
2022-12-22T04:20:05.249Z,75.49
2022-12-22T04:21:06.781Z,76.53
2022-12-22T04:22:08.317Z,78.00
2022-12-22T04:23:10.558Z,79.89
2022-12-22T04:24:13.237Z,80.25
2022-12-22T04:25:15.369Z,81.27
2022-12-22T04:26:18.999Z,81.94
2022-12-22T04:27:21.048Z,82.63
2022-12-22T04:28:22.670Z,83.22
2022-12-22T04:29:24.348Z,84.08
2022-12-22T04:30:25.926Z,84.63
2022-12-22T04:31:27.699Z,84.34
2022-12-22T04:32:29.200Z,85.24
2022-12-22T04:33:30.761Z,86.03
2022-12-22T04:34:32.282Z,86.27
2022-12-22T04:35:33.830Z,87.28
2022-12-22T04:36:35.539Z,88.06
2022-12-22T04:37:37.424Z,87.52
2022-12-22T04:38:39.056Z,87.98
2022-12-22T04:39:40.590Z,88.07
2022-12-22T04:40:42.154Z,88.51
2022-12-22T04:41:44.702Z,89.51
2022-12-22T04:42:46.257Z,89.42
2022-12-22T04:43:47.803Z,89.67
2022-12-22T04:44:49.868Z,90.08
2022-12-22T04:45:56.207Z,89.44
2022-12-22T04:46:57.813Z,89.45
2022-12-22T04:47:59.568Z,88.12
2022-12-22T04:49:01.457Z,87.60
2022-12-22T04:50:03.245Z,86.90
2022-12-22T04:51:05.142Z,86.35
2022-12-22T04:52:07.193Z,85.73
2022-12-22T04:53:09.115Z,85.05
2022-12-22T04:54:11.420Z,83.64
2022-12-22T04:55:12.961Z,83.14
2022-12-22T04:56:14.484Z,83.43
2022-12-22T04:57:16.610Z,82.98
2022-12-22T04:58:18.176Z,82.73
2022-12-22T04:59:19.777Z,83.16
2022-12-22T05:00:21.355Z,83.70
2022-12-22T05:01:23.055Z,83.14
2022-12-22T05:02:24.691Z,82.73
2022-12-22T05:03:26.333Z,83.79
2022-12-22T05:04:28.030Z,83.44
2022-12-22T05:05:29.521Z,82.98
2022-12-22T05:06:31.170Z,82.95
2022-12-22T05:07:32.733Z,83.53
2022-12-22T05:08:34.562Z,82.93
2022-12-22T05:09:36.071Z,82.69
2022-12-22T05:10:37.875Z,83.10
2022-12-22T05:11:39.517Z,82.28
2022-12-22T05:12:56.276Z,82.73
2022-12-22T05:14:02.075Z,82.40
2022-12-22T05:15:07.722Z,82.57
2022-12-22T05:16:15.342Z,83.07
2022-12-22T05:17:17.017Z,82.63
2022-12-22T05:18:18.576Z,82.03
2022-12-22T05:19:20.172Z,84.53
2022-12-22T05:20:22.129Z,87.12
2022-12-22T05:21:23.831Z,86.10
2022-12-22T05:22:25.403Z,84.52
2022-12-22T05:23:26.964Z,83.08
2022-12-22T05:24:28.472Z,81.87
2022-12-22T05:25:35.038Z,80.51
2022-12-22T05:26:37.207Z,79.48
2022-12-22T05:27:38.948Z,79.13
2022-12-22T05:28:45.170Z,77.55
2022-12-22T05:29:46.693Z,77.08
2022-12-22T05:30:48.273Z,76.71
2022-12-22T05:31:49.837Z,76.02
2022-12-22T05:32:51.400Z,75.62
2022-12-22T05:33:53.147Z,75.44
2022-12-22T05:34:54.706Z,74.41
2022-12-22T05:35:56.264Z,73.93
2022-12-22T05:36:57.839Z,73.59
2022-12-22T05:37:59.404Z,73.35
2022-12-22T05:39:00.980Z,74.72
2022-12-22T05:40:03.078Z,74.56
2022-12-22T05:41:05.049Z,74.90
2022-12-22T05:42:06.560Z,75.98
2022-12-22T05:43:08.127Z,76.54
2022-12-22T05:44:09.636Z,76.41
2022-12-22T05:45:20.320Z,76.90
2022-12-22T05:46:23.636Z,77.32
2022-12-22T05:47:25.221Z,77.62
2022-12-22T05:48:32.154Z,77.41
2022-12-22T05:49:36.984Z,78.30
2022-12-22T05:50:39.034Z,79.02
2022-12-22T05:51:40.572Z,78.56
2022-12-22T05:52:42.794Z,78.96
2022-12-22T05:53:44.298Z,79.60
2022-12-22T05:54:45.891Z,80.37
2022-12-22T05:55:47.807Z,80.54
2022-12-22T05:56:49.379Z,80.67
2022-12-22T05:57:50.947Z,80.67
2022-12-22T05:58:52.592Z,80.33
2022-12-22T05:59:54.235Z,80.23
2022-12-22T06:00:58.283Z,80.00
2022-12-22T06:01:59.916Z,80.06
2022-12-22T06:03:01.639Z,79.76
2022-12-22T06:04:03.617Z,79.63
2022-12-22T06:05:06.302Z,79.27
2022-12-22T06:06:07.976Z,79.07
2022-12-22T06:07:09.774Z,78.81
2022-12-22T06:08:11.324Z,80.08
2022-12-22T06:09:12.865Z,80.52
2022-12-22T06:10:15.488Z,80.49
2022-12-22T06:11:19.331Z,80.66
2022-12-22T06:12:20.910Z,81.71
2022-12-22T06:13:23.202Z,82.15
2022-12-22T06:14:24.790Z,82.33
2022-12-22T06:15:26.377Z,82.71
2022-12-22T06:16:27.925Z,82.49
2022-12-22T06:17:29.552Z,82.61
2022-12-22T06:18:31.096Z,82.30
2022-12-22T06:19:32.648Z,82.16
2022-12-22T06:20:34.241Z,82.18
2022-12-22T06:21:35.790Z,82.64
2022-12-22T06:22:37.397Z,82.83
2022-12-22T06:23:38.954Z,83.09
2022-12-22T06:24:40.507Z,82.37
2022-12-22T06:25:42.217Z,82.22
2022-12-22T06:26:43.897Z,80.96
2022-12-22T06:27:46.836Z,81.39
2022-12-22T06:28:48.434Z,81.11
2022-12-22T06:29:50.042Z,81.22
2022-12-22T06:30:51.709Z,81.49
2022-12-22T06:31:53.395Z,82.52
2022-12-22T06:32:54.999Z,84.38
2022-12-22T06:33:56.525Z,85.99
2022-12-22T06:34:58.034Z,86.43
2022-12-22T06:36:04.628Z,86.77
2022-12-22T06:37:06.205Z,87.40
2022-12-22T06:38:07.778Z,87.36
2022-12-22T06:39:09.373Z,86.86
2022-12-22T06:40:11.371Z,87.06
2022-12-22T06:41:12.899Z,86.55
2022-12-22T06:42:33.027Z,85.78
2022-12-22T06:43:34.579Z,85.73
2022-12-22T06:44:36.135Z,84.69
2022-12-22T06:45:42.637Z,84.72
2022-12-22T06:46:44.362Z,83.77
2022-12-22T06:47:46.054Z,83.41
2022-12-22T06:48:48.016Z,92.02
2022-12-22T06:49:49.749Z,89.86
2022-12-22T06:50:51.446Z,87.47
2022-12-22T06:51:53.135Z,84.87
2022-12-22T06:52:54.783Z,82.25
2022-12-22T06:53:56.305Z,81.29
2022-12-22T06:54:57.839Z,81.13
2022-12-22T06:55:59.386Z,80.42
2022-12-22T06:57:01.004Z,79.97
2022-12-22T06:58:02.960Z,78.96
2022-12-22T06:59:04.828Z,79.43
2022-12-22T07:00:06.941Z,78.81
2022-12-22T07:01:08.495Z,78.96
2022-12-22T07:02:11.648Z,77.73
2022-12-22T07:03:13.500Z,76.73
2022-12-22T07:04:19.882Z,75.38
2022-12-22T07:05:23.869Z,75.50
2022-12-22T07:06:25.663Z,77.31
2022-12-22T07:07:27.221Z,77.67
2022-12-22T07:08:29.341Z,77.08
2022-12-22T07:09:30.972Z,76.96
2022-12-22T07:10:50.862Z,75.81
2022-12-22T07:11:52.462Z,77.46
2022-12-22T07:12:54.204Z,75.72
2022-12-22T07:13:55.782Z,74.24
2022-12-22T07:14:57.381Z,73.50
2022-12-22T07:16:01.126Z,73.17
2022-12-22T07:17:03.638Z,76.19
2022-12-22T07:18:05.328Z,75.17
2022-12-22T07:19:06.986Z,74.89
2022-12-22T07:20:09.053Z,74.65
2022-12-22T07:21:13.177Z,74.84
2022-12-22T07:22:14.752Z,75.44
2022-12-22T07:23:16.360Z,75.18
2022-12-22T07:24:23.198Z,75.11
2022-12-22T07:25:24.734Z,74.22
2022-12-22T07:26:26.345Z,74.41
2022-12-22T07:27:27.885Z,73.79
2022-12-22T07:28:31.954Z,73.53
2022-12-22T07:29:33.560Z,72.32
2022-12-22T07:30:36.797Z,72.62
2022-12-22T07:31:38.365Z,71.25
2022-12-22T07:32:39.940Z,71.05
2022-12-22T07:33:41.618Z,70.51
2022-12-22T07:34:43.195Z,70.99
2022-12-22T07:35:44.969Z,71.06
2022-12-22T07:36:46.531Z,71.46
2022-12-22T07:37:49.028Z,72.15
2022-12-22T07:38:51.938Z,72.31
2022-12-22T07:39:53.477Z,74.42
2022-12-22T07:41:04.502Z,77.09
2022-12-22T07:42:26.859Z,78.11
2022-12-22T07:43:28.353Z,77.66
2022-12-22T07:44:29.887Z,78.80
2022-12-22T07:45:31.468Z,79.28
2022-12-22T07:46:36.177Z,78.41
2022-12-22T07:47:37.976Z,78.43
2022-12-22T07:48:57.949Z,77.14
2022-12-22T07:50:17.823Z,77.98
2022-12-22T07:51:19.325Z,76.70
2022-12-22T07:52:20.873Z,76.40
2022-12-22T07:53:22.487Z,75.75
2022-12-22T07:54:24.584Z,76.36
2022-12-22T07:55:27.905Z,76.06
2022-12-22T07:56:30.122Z,75.18
2022-12-22T07:57:31.748Z,74.56
2022-12-22T07:58:33.588Z,73.56
2022-12-22T07:59:35.258Z,73.76
2022-12-22T08:00:36.788Z,72.83
2022-12-22T08:01:40.041Z,72.75
2022-12-22T08:02:41.797Z,73.18
2022-12-22T08:03:43.374Z,72.69
2022-12-22T08:04:45.163Z,72.27
2022-12-22T08:05:46.757Z,71.56
2022-12-22T08:06:48.331Z,71.92
2022-12-22T08:07:51.872Z,70.96
2022-12-22T08:08:53.435Z,70.23
2022-12-22T08:09:55.549Z,69.35
2022-12-22T08:10:57.107Z,70.30
2022-12-22T08:12:07.624Z,69.51
2022-12-22T08:13:09.213Z,69.55
2022-12-22T08:14:10.785Z,68.74
2022-12-22T08:15:12.404Z,69.68
2022-12-22T08:16:14.390Z,68.79
2022-12-22T08:17:16.207Z,68.44
2022-12-22T08:18:17.795Z,68.83
2022-12-22T08:19:19.402Z,68.08
2022-12-22T08:20:20.954Z,68.26
2022-12-22T08:21:23.138Z,68.16
2022-12-22T08:22:25.198Z,67.71
2022-12-22T08:23:26.803Z,67.77
2022-12-22T08:24:28.963Z,67.79
2022-12-22T08:25:32.446Z,68.05
2022-12-22T08:26:38.238Z,67.48
2022-12-22T08:27:47.443Z,68.14
2022-12-22T08:28:58.599Z,68.21
2022-12-22T08:30:02.302Z,67.78
2022-12-22T08:31:04.344Z,67.84
2022-12-22T08:32:06.008Z,67.49
2022-12-22T08:33:07.650Z,68.40
2022-12-22T08:34:12.830Z,69.06
2022-12-22T08:35:14.372Z,69.25
2022-12-22T08:36:16.368Z,67.65
2022-12-22T08:37:22.647Z,67.36
2022-12-22T08:38:24.231Z,68.11
2022-12-22T08:39:27.897Z,66.69
2022-12-22T08:40:32.410Z,66.68
2022-12-22T08:41:51.221Z,66.38
2022-12-22T08:42:59.248Z,66.11
2022-12-22T08:44:01.266Z,65.99
2022-12-22T08:45:03.296Z,66.73
2022-12-22T08:46:04.953Z,66.53
2022-12-22T08:47:10.246Z,66.59
2022-12-22T08:48:16.626Z,65.72
2022-12-22T08:49:18.797Z,65.90
2022-12-22T08:50:20.439Z,66.95
2022-12-22T08:51:22.050Z,67.02
2022-12-22T08:52:23.580Z,67.16
2022-12-22T08:54:02.523Z,68.06
2022-12-22T08:54:46.964Z,67.65
2022-12-22T08:55:55.790Z,67.07
2022-12-22T08:56:58.706Z,66.73
2022-12-22T08:58:00.448Z,67.11
2022-12-22T08:59:07.679Z,68.34
2022-12-22T09:00:11.195Z,68.69
2022-12-22T09:01:21.615Z,69.36
2022-12-22T09:02:23.249Z,69.70
2022-12-22T09:03:25.004Z,68.37
2022-12-22T09:04:26.662Z,67.90
2022-12-22T09:05:28.176Z,68.00
2022-12-22T09:06:36.290Z,67.50
2022-12-22T09:07:41.940Z,66.73
2022-12-22T09:08:43.512Z,66.74
2022-12-22T09:09:45.452Z,65.50
2022-12-22T09:10:47.099Z,65.26
2022-12-22T09:11:48.755Z,65.36
2022-12-22T09:12:51.424Z,66.26
2022-12-22T09:13:55.404Z,66.33
2022-12-22T09:14:57.040Z,66.69
2022-12-22T09:15:58.662Z,67.54
2022-12-22T09:17:00.595Z,67.12
2022-12-22T09:18:02.248Z,66.55
2022-12-22T09:19:04.693Z,66.27
2022-12-22T09:20:07.021Z,67.16
2022-12-22T09:21:08.608Z,67.29
2022-12-22T09:22:11.380Z,66.96
2022-12-22T09:23:12.947Z,67.08
2022-12-22T09:24:14.685Z,67.43
2022-12-22T09:25:18.232Z,68.34
2022-12-22T09:26:21.859Z,68.57
2022-12-22T09:27:23.418Z,69.19
2022-12-22T09:28:24.979Z,68.91
2022-12-22T09:29:26.541Z,67.94
2022-12-22T09:30:28.108Z,68.31
2022-12-22T09:31:29.921Z,68.34
2022-12-22T09:32:31.535Z,67.39
2022-12-22T09:33:34.248Z,68.19
2022-12-22T09:34:35.766Z,68.85
2022-12-22T09:35:41.487Z,69.82
2022-12-22T09:36:43.109Z,70.81
2022-12-22T09:37:44.680Z,70.56
2022-12-22T09:38:46.261Z,69.82
2022-12-22T09:39:48.672Z,68.04
2022-12-22T09:40:50.242Z,68.85
2022-12-22T09:41:54.813Z,68.93
2022-12-22T09:42:58.345Z,69.77
2022-12-22T09:44:13.451Z,71.85
2022-12-22T09:45:20.162Z,72.11
2022-12-22T09:46:25.568Z,71.27
2022-12-22T09:47:37.887Z,72.13
2022-12-22T09:48:39.540Z,70.44
2022-12-22T09:49:41.137Z,69.94
2022-12-22T09:50:42.778Z,70.13
2022-12-22T09:51:48.203Z,71.06
2022-12-22T09:52:54.569Z,70.79
2022-12-22T09:54:01.198Z,71.74
2022-12-22T09:55:13.020Z,71.28
2022-12-22T09:56:16.942Z,68.42
2022-12-22T09:57:18.504Z,70.12
2022-12-22T09:58:32.574Z,71.54
2022-12-22T09:59:34.130Z,71.10
2022-12-22T10:00:36.927Z,70.72
2022-12-22T10:01:53.705Z,70.59
2022-12-22T10:03:21.290Z,69.18
2022-12-22T10:04:54.938Z,67.83
2022-12-22T10:06:23.574Z,68.30
2022-12-22T10:07:38.424Z,69.28
2022-12-22T10:08:41.118Z,69.70
2022-12-22T10:09:51.505Z,69.75
2022-12-22T10:10:54.844Z,68.68
2022-12-22T10:12:03.669Z,68.29
2022-12-22T10:13:06.659Z,71.20
2022-12-22T10:14:10.864Z,69.90
2022-12-22T10:15:18.285Z,71.10
2022-12-22T10:16:28.214Z,69.06
2022-12-22T10:17:33.277Z,70.54
2022-12-22T10:18:35.514Z,69.79
2022-12-22T10:19:37.070Z,70.65
2022-12-22T10:20:39.894Z,70.23
2022-12-22T10:21:46.612Z,70.40
2022-12-22T10:22:53.194Z,70.87
2022-12-22T10:23:54.808Z,69.71
2022-12-22T10:24:57.215Z,68.59
2022-12-22T10:27:28.675Z,67.77
2022-12-22T10:28:38.705Z,67.46
2022-12-22T10:29:40.278Z,67.36
2022-12-22T10:30:42.133Z,66.72
2022-12-22T10:32:05.171Z,66.46
2022-12-22T10:33:11.684Z,66.75
2022-12-22T10:34:15.903Z,65.97
2022-12-22T10:35:17.558Z,66.10
2022-12-22T10:36:24.273Z,67.18
2022-12-22T10:37:40.135Z,66.80
2022-12-22T10:39:02.031Z,66.19
2022-12-22T10:40:33.581Z,65.51
2022-12-22T10:41:48.592Z,65.73
2022-12-22T10:42:55.925Z,66.19
2022-12-22T10:43:59.718Z,69.13
2022-12-22T10:45:01.400Z,65.04
2022-12-22T10:46:04.460Z,64.33
2022-12-22T10:47:18.003Z,65.20
2022-12-22T10:48:28.416Z,65.27
2022-12-22T10:50:48.484Z,64.86
2022-12-22T10:52:10.397Z,63.91
2022-12-22T10:53:12.049Z,63.34
2022-12-22T10:54:36.014Z,62.12
2022-12-22T10:55:39.348Z,62.30
2022-12-22T10:56:40.965Z,62.23
2022-12-22T10:57:42.539Z,61.82
2022-12-22T10:58:52.235Z,62.67
2022-12-22T10:59:57.391Z,62.76
2022-12-22T11:01:05.717Z,62.33
2022-12-22T11:02:49.003Z,60.45
2022-12-22T11:03:50.800Z,60.90
2022-12-22T11:04:53.491Z,61.54
2022-12-22T11:05:55.012Z,61.75
2022-12-22T11:06:58.690Z,61.56
2022-12-22T11:08:14.986Z,61.26
2022-12-22T11:09:33.141Z,62.20
2022-12-22T11:10:42.665Z,62.63
2022-12-22T11:11:44.172Z,63.45
2022-12-22T11:13:05.348Z,63.67
2022-12-22T11:14:16.573Z,63.43
2022-12-22T11:15:34.399Z,64.71
2022-12-22T11:17:00.494Z,64.32
2022-12-22T11:18:12.184Z,64.37
2022-12-22T11:19:47.796Z,64.84
2022-12-22T11:21:01.030Z,64.64
2022-12-22T11:22:28.556Z,64.13
2022-12-22T11:23:46.498Z,63.23
2022-12-22T11:25:03.194Z,61.26
2022-12-22T11:26:31.373Z,59.91
2022-12-22T11:27:51.448Z,60.18
2022-12-22T11:29:12.766Z,60.47
2022-12-22T11:30:20.072Z,60.25
2022-12-22T11:31:27.502Z,60.95
2022-12-22T11:32:53.640Z,59.70
2022-12-22T11:34:27.176Z,60.41
2022-12-22T11:36:09.846Z,59.64
2022-12-22T11:37:48.494Z,59.30
2022-12-22T11:39:04.359Z,59.75
2022-12-22T11:40:13.463Z,59.91
2022-12-22T11:41:52.537Z,60.06
2022-12-22T11:43:22.554Z,59.86
2022-12-22T11:44:42.749Z,61.81
2022-12-22T11:46:10.658Z,63.15
2022-12-22T11:47:29.575Z,63.25
2022-12-22T11:48:55.911Z,63.54
2022-12-22T11:50:58.121Z,64.29
2022-12-22T11:52:02.249Z,65.75
2022-12-22T11:53:45.394Z,66.39
2022-12-22T11:55:11.772Z,66.07
2022-12-22T11:56:22.648Z,74.04
2022-12-22T11:58:01.631Z,68.07
2022-12-22T11:59:35.572Z,65.23
2022-12-22T12:01:16.248Z,64.28
2022-12-22T12:02:37.754Z,66.41
2022-12-22T12:03:48.954Z,64.74
2022-12-22T12:05:09.322Z,66.09
2022-12-22T12:06:34.690Z,66.54
2022-12-22T12:07:50.988Z,67.34
2022-12-22T12:09:18.009Z,66.20
2022-12-22T12:10:27.810Z,66.67
2022-12-22T12:11:54.149Z,65.74
2022-12-22T12:13:04.600Z,65.58
2022-12-22T12:14:19.754Z,65.38
2022-12-22T12:15:41.558Z,66.41
2022-12-22T12:16:54.138Z,65.36
2022-12-22T12:18:13.588Z,66.18
2022-12-22T12:19:44.120Z,65.98
2022-12-22T12:20:55.463Z,65.99
2022-12-22T12:22:12.145Z,66.04
2022-12-22T12:23:44.701Z,65.52
2022-12-22T12:25:25.828Z,66.12
2022-12-22T12:26:31.146Z,65.68
2022-12-22T12:28:03.350Z,66.17
2022-12-22T12:29:13.623Z,66.24
2022-12-22T12:32:05.482Z,64.16
2022-12-22T12:33:42.836Z,64.80
2022-12-22T12:34:48.568Z,64.99
2022-12-22T12:36:28.008Z,65.62
2022-12-22T12:37:34.399Z,65.52
2022-12-22T12:39:07.585Z,64.14
2022-12-22T12:40:19.226Z,64.13
2022-12-22T12:41:33.329Z,64.53
2022-12-22T12:42:42.414Z,65.42
2022-12-22T12:43:45.132Z,64.45
2022-12-22T12:44:47.661Z,64.40
2022-12-22T12:45:50.229Z,65.01
2022-12-22T12:46:52.386Z,64.57
2022-12-22T12:47:54.527Z,63.36
2022-12-22T12:48:56.391Z,64.38
2022-12-22T12:50:02.177Z,64.05
2022-12-22T12:51:42.353Z,63.40
2022-12-22T12:52:48.565Z,62.34
2022-12-22T12:54:42.709Z,64.01
2022-12-22T12:55:50.321Z,64.00
2022-12-22T12:56:59.589Z,62.94
2022-12-22T12:58:04.241Z,63.25
2022-12-22T12:59:07.623Z,62.50
2022-12-22T13:00:32.485Z,63.09
2022-12-22T13:01:40.483Z,63.35
2022-12-22T13:02:57.211Z,63.05
2022-12-22T13:04:04.324Z,62.43
2022-12-22T13:05:12.479Z,62.21
2022-12-22T13:06:50.992Z,62.70
2022-12-22T13:08:08.204Z,61.91
2022-12-22T13:10:54.507Z,62.29
2022-12-22T13:12:13.708Z,62.26
2022-12-22T13:13:22.874Z,62.30
2022-12-22T13:15:01.433Z,62.01
2022-12-22T13:16:03.059Z,61.80
2022-12-22T13:18:02.290Z,60.63
2022-12-22T13:19:12.457Z,60.12
2022-12-22T13:20:17.671Z,59.72
2022-12-22T13:22:52.864Z,60.02
2022-12-22T13:24:24.090Z,60.67
2022-12-22T13:25:40.480Z,60.05
2022-12-22T13:26:44.480Z,59.39
2022-12-22T13:27:46.198Z,59.47
2022-12-22T13:28:54.764Z,59.92
2022-12-22T13:29:56.568Z,58.61
2022-12-22T13:31:01.427Z,58.67
2022-12-22T13:32:19.401Z,59.78
2022-12-22T13:33:25.576Z,59.91
2022-12-22T13:35:04.266Z,60.05
2022-12-22T13:36:01.277Z,60.49
2022-12-22T13:37:14.677Z,58.41
2022-12-22T13:38:34.901Z,58.86
2022-12-22T13:39:36.436Z,57.30
2022-12-22T13:40:43.439Z,58.22
2022-12-22T13:41:47.851Z,58.93
2022-12-22T13:42:53.078Z,59.31
2022-12-22T13:44:01.254Z,59.12
2022-12-22T13:45:03.730Z,59.42
2022-12-22T13:46:05.955Z,58.78
2022-12-22T13:47:14.766Z,57.92
2022-12-22T13:48:20.891Z,58.04
2022-12-22T13:49:58.696Z,58.55
2022-12-22T13:50:54.211Z,58.72
2022-12-22T13:52:00.285Z,58.35
2022-12-22T13:53:09.549Z,59.04
2022-12-22T13:54:20.580Z,59.00
2022-12-22T13:55:28.242Z,58.09
2022-12-22T13:56:39.608Z,57.93
2022-12-22T13:57:41.535Z,58.04
2022-12-22T13:58:47.887Z,57.76
2022-12-22T13:59:51.593Z,57.97
2022-12-22T14:01:02.044Z,57.33
2022-12-22T14:02:16.139Z,57.28
2022-12-22T14:03:41.705Z,57.35
2022-12-22T14:04:43.696Z,57.62
2022-12-22T14:05:45.356Z,56.62
2022-12-22T14:06:47.006Z,56.43
2022-12-22T14:08:26.699Z,56.15
2022-12-22T14:09:28.309Z,56.00
2022-12-22T14:10:39.018Z,56.68
2022-12-22T14:11:50.703Z,56.60
2022-12-22T14:12:53.011Z,56.11
2022-12-22T14:13:54.538Z,56.36
2022-12-22T14:14:58.428Z,56.35
2022-12-22T14:16:02.538Z,56.35
2022-12-22T14:17:05.235Z,56.54
2022-12-22T14:18:06.887Z,56.44
2022-12-22T14:19:11.218Z,56.96
2022-12-22T14:20:20.897Z,56.79
2022-12-22T14:21:22.487Z,57.08
2022-12-22T14:22:33.531Z,57.00
2022-12-22T14:23:40.245Z,57.84
2022-12-22T14:24:45.326Z,58.00
2022-12-22T14:25:48.594Z,57.47
2022-12-22T14:26:53.377Z,57.81
2022-12-22T14:27:56.603Z,58.30
2022-12-22T14:28:58.933Z,57.94
2022-12-22T14:30:03.167Z,58.42
2022-12-22T14:31:12.986Z,58.58
2022-12-22T14:32:37.260Z,58.60
2022-12-22T14:33:39.055Z,58.64
2022-12-22T14:34:41.360Z,58.50
2022-12-22T14:35:43.018Z,58.38
2022-12-22T14:36:53.945Z,58.17
2022-12-22T14:38:24.002Z,57.58
2022-12-22T14:39:30.797Z,58.26
2022-12-22T14:40:34.968Z,57.89
2022-12-22T14:41:51.372Z,57.71
2022-12-22T14:42:53.160Z,57.42
2022-12-22T14:43:54.733Z,57.43
2022-12-22T14:44:56.795Z,57.32
2022-12-22T14:46:08.988Z,57.17
2022-12-22T14:47:17.456Z,57.32
2022-12-22T14:48:27.892Z,57.12
2022-12-22T14:49:29.744Z,56.83
2022-12-22T14:50:31.506Z,56.62
2022-12-22T14:51:33.128Z,57.15
2022-12-22T14:52:45.122Z,57.05
2022-12-22T14:53:58.660Z,57.37
2022-12-22T14:55:00.981Z,57.18
2022-12-22T14:56:02.668Z,57.02
2022-12-22T14:57:20.319Z,56.99
2022-12-22T14:58:28.183Z,56.96
2022-12-22T14:59:30.041Z,56.77
2022-12-22T15:00:35.561Z,56.81
2022-12-22T15:01:37.586Z,57.23
2022-12-22T15:02:48.934Z,56.68
2022-12-22T15:04:08.175Z,56.95
2022-12-22T15:05:25.959Z,57.40
2022-12-22T15:06:27.425Z,58.17
2022-12-22T15:08:03.881Z,58.83
2022-12-22T15:08:53.369Z,58.66
2022-12-22T15:10:17.230Z,59.01
2022-12-22T15:11:21.762Z,58.95
2022-12-22T15:12:23.508Z,58.51